Time;durP1;ratioP1;P1;durP2;ratioP2;P2;SDS_P1;SDS_P2;PMS_P1;PMS_P2;Temp;Humidity;BMP_temperature;BMP_pressure;BME280_temperature;BME280_humidity;BME280_pressure;Samples;Min_cycle;Max_cycle;Signal;HPM_P1;HPM_P2
2022/07/07 00:01:59;;;;;;;5.63;3.20;;;17.70;99.90;;;;;;5055208;28;20180;-83
2022/07/07 00:04:25;;;;;;;8.00;3.30;;;17.70;99.90;;;;;;5056344;28;20201;-83
2022/07/07 00:06:51;;;;;;;4.77;2.63;;;17.70;99.90;;;;;;5055765;28;20264;-83
2022/07/07 00:09:16;;;;;;;9.07;3.07;;;17.60;99.90;;;;;;5056103;28;20180;-84
2022/07/07 00:11:42;;;;;;;4.07;3.40;;;17.60;99.90;;;;;;5056523;28;20668;-84
2022/07/07 00:14:08;;;;;;;8.40;3.73;;;17.60;99.90;;;;;;5056112;28;20279;-83
2022/07/07 00:16:35;;;;;;;9.07;4.03;;;17.50;99.90;;;;;;5055505;28;20524;-84
2022/07/07 00:19:02;;;;;;;9.10;4.13;;;17.40;99.90;;;;;;5056825;28;20169;-84
2022/07/07 00:21:28;;;;;;;5.57;4.43;;;17.40;99.90;;;;;;5056241;28;20198;-84
2022/07/07 00:23:54;;;;;;;10.10;4.97;;;17.10;99.90;;;;;;5056259;28;20205;-83
2022/07/07 00:26:20;;;;;;;8.10;4.90;;;17.00;99.90;;;;;;5056120;28;20267;-84
2022/07/07 00:28:47;;;;;;;11.83;5.13;;;16.90;99.90;;;;;;5057102;28;20237;-83
2022/07/07 00:31:13;;;;;;;9.50;5.37;;;16.90;99.90;;;;;;5056194;28;20219;-83
2022/07/07 00:33:39;;;;;;;8.57;5.70;;;16.80;99.90;;;;;;5055330;28;20193;-83
2022/07/07 00:36:07;;;;;;;12.20;5.97;;;16.70;99.90;;;;;;5056695;28;20216;-83
2022/07/07 00:38:33;;;;;;;11.70;6.30;;;16.80;99.90;;;;;;5056301;28;20246;-84
2022/07/07 00:40:59;;;;;;;12.90;5.90;;;16.80;99.90;;;;;;5057426;28;20189;-82
2022/07/07 00:43:24;;;;;;;12.03;5.87;;;16.80;99.90;;;;;;5055396;28;20197;-83
2022/07/07 00:45:51;;;;;;;9.37;6.03;;;16.70;99.90;;;;;;5056022;28;20538;-83
2022/07/07 00:48:21;;;;;;;12.20;5.93;;;16.80;99.90;;;;;;5055549;28;20180;-84
2022/07/07 00:50:47;;;;;;;8.93;5.87;;;16.70;99.90;;;;;;5055322;28;20558;-83
2022/07/07 00:53:15;;;;;;;13.20;6.30;;;16.70;99.90;;;;;;5059309;28;20195;-83
2022/07/07 00:55:41;;;;;;;10.27;5.83;;;16.70;99.90;;;;;;5059867;28;20227;-84
2022/07/07 00:58:07;;;;;;;10.87;5.70;;;16.70;99.90;;;;;;5060185;28;20169;-83
2022/07/07 01:00:33;;;;;;;13.03;6.57;;;16.70;99.90;;;;;;5060159;28;20177;-83
2022/07/07 01:03:00;;;;;;;12.13;6.00;;;16.70;99.90;;;;;;5058754;28;20565;-83
2022/07/07 01:05:26;;;;;;;9.87;5.80;;;16.80;99.90;;;;;;5057952;28;20229;-83
2022/07/07 01:07:53;;;;;;;9.80;5.57;;;16.70;99.90;;;;;;5058491;28;20173;-83
2022/07/07 01:10:19;;;;;;;7.63;5.63;;;16.70;99.90;;;;;;5058655;28;20207;-83
2022/07/07 01:12:45;;;;;;;7.47;5.50;;;16.70;99.90;;;;;;5058357;28;20256;-84
2022/07/07 01:15:13;;;;;;;7.30;5.90;;;16.70;99.90;;;;;;5058301;28;20176;-83
2022/07/07 01:17:39;;;;;;;11.07;5.53;;;16.80;99.90;;;;;;5059055;28;20644;-84
2022/07/07 01:20:07;;;;;;;9.87;5.67;;;16.70;99.90;;;;;;5060135;28;20174;-83
2022/07/07 01:22:37;;;;;;;9.50;5.80;;;16.80;99.90;;;;;;5058120;28;20250;-83
2022/07/07 01:25:07;;;;;;;8.63;5.40;;;16.60;99.90;;;;;;5058958;28;20715;-84
2022/07/07 01:27:33;;;;;;;9.10;5.73;;;16.60;99.90;;;;;;5059253;28;20176;-84
2022/07/07 01:29:58;;;;;;;14.30;6.80;;;16.70;99.90;;;;;;5059426;28;20600;-83
2022/07/07 01:32:25;;;;;;;10.37;5.47;;;16.70;99.90;;;;;;5059108;28;20188;-83
2022/07/07 01:34:52;;;;;;;9.83;5.87;;;16.70;99.90;;;;;;5059172;28;20169;-82
2022/07/07 01:37:20;;;;;;;7.13;5.80;;;16.70;99.90;;;;;;5059334;28;20173;-83
2022/07/07 01:39:46;;;;;;;9.53;5.00;;;16.70;99.90;;;;;;5059015;28;20545;-84
2022/07/07 01:42:13;;;;;;;8.70;5.53;;;16.70;99.90;;;;;;5058586;28;20270;-85
2022/07/07 01:44:40;;;;;;;7.40;5.30;;;16.80;99.90;;;;;;5059309;28;20184;-84
2022/07/07 01:47:07;;;;;;;6.57;5.50;;;16.70;99.90;;;;;;5059208;28;20180;-85
2022/07/07 01:49:33;;;;;;;6.10;4.80;;;16.70;99.90;;;;;;5058878;28;20166;-83
2022/07/07 01:52:00;;;;;;;10.23;5.67;;;16.70;99.90;;;;;;5059354;28;20172;-83
2022/07/07 01:54:27;;;;;;;7.63;5.10;;;16.70;99.90;;;;;;5059001;28;20200;-84
2022/07/07 01:56:53;;;;;;;10.03;4.80;;;16.70;99.90;;;;;;5059721;28;20170;-83
2022/07/07 01:59:18;;;;;;;6.30;4.90;;;16.70;99.90;;;;;;5059440;28;20178;-84
2022/07/07 02:01:44;;;;;;;7.83;5.10;;;16.60;99.90;;;;;;5059755;28;20270;-83
2022/07/07 02:04:10;;;;;;;7.47;5.17;;;16.70;99.90;;;;;;5059799;28;20200;-84
2022/07/07 02:06:38;;;;;;;9.23;4.73;;;16.70;99.90;;;;;;5061012;28;20184;-84
2022/07/07 02:09:03;;;;;;;9.40;4.60;;;16.80;99.90;;;;;;5057864;28;20181;-84
2022/07/07 02:11:29;;;;;;;9.97;4.27;;;16.80;99.90;;;;;;5064955;28;20209;-83
2022/07/07 02:13:55;;;;;;;7.83;4.20;;;16.80;99.90;;;;;;5061214;28;20220;-84
2022/07/07 02:16:22;;;;;;;9.67;4.57;;;16.70;99.90;;;;;;5060380;28;20239;-83
2022/07/07 02:18:51;;;;;;;6.40;4.30;;;16.80;99.90;;;;;;5061394;28;20180;-83
2022/07/07 02:21:17;;;;;;;9.63;4.53;;;16.80;99.90;;;;;;5059470;28;20179;-84
2022/07/07 02:23:45;;;;;;;10.30;4.43;;;16.90;99.90;;;;;;5058856;28;20310;-83
2022/07/07 02:26:11;;;;;;;6.07;4.20;;;16.80;99.90;;;;;;5058602;28;20231;-83
2022/07/07 02:28:39;;;;;;;5.13;4.13;;;16.80;99.90;;;;;;5058820;28;20219;-83
2022/07/07 02:31:04;;;;;;;5.73;4.57;;;16.80;99.90;;;;;;5058387;28;20219;-83
2022/07/07 02:33:30;;;;;;;7.20;4.40;;;16.80;99.90;;;;;;5057826;28;20189;-83
2022/07/07 02:35:57;;;;;;;5.00;4.40;;;16.80;99.90;;;;;;5057809;28;20185;-84
2022/07/07 02:38:23;;;;;;;7.03;4.40;;;16.80;99.90;;;;;;5058224;28;20176;-84
2022/07/07 02:40:50;;;;;;;6.83;4.53;;;16.70;99.90;;;;;;5057977;28;20185;-83
2022/07/07 02:43:16;;;;;;;6.57;4.63;;;16.70;99.90;;;;;;5057396;28;20338;-83
2022/07/07 02:45:43;;;;;;;6.67;4.33;;;16.70;99.90;;;;;;5057826;28;20176;-84
2022/07/07 02:48:10;;;;;;;8.90;4.13;;;16.80;99.90;;;;;;5057058;28;20177;-84
2022/07/07 02:50:37;;;;;;;12.43;4.57;;;16.70;99.90;;;;;;5056941;28;20224;-85
2022/07/07 02:53:03;;;;;;;10.40;4.70;;;16.70;99.90;;;;;;5057235;28;20563;-85
2022/07/07 02:55:30;;;;;;;10.97;4.60;;;16.80;99.90;;;;;;5056764;28;20170;-84
2022/07/07 02:57:56;;;;;;;7.33;4.83;;;16.70;99.90;;;;;;5057703;28;20173;-83
2022/07/07 03:00:22;;;;;;;6.33;4.97;;;16.70;99.90;;;;;;5056908;28;20239;-83
2022/07/07 03:02:48;;;;;;;8.80;4.67;;;16.80;99.90;;;;;;5056079;28;20627;-84
2022/07/07 03:05:14;;;;;;;6.63;4.97;;;16.90;99.90;;;;;;5057039;28;20210;-83
2022/07/07 03:07:39;;;;;;;7.30;4.80;;;16.90;99.90;;;;;;5056899;28;20185;-84
2022/07/07 03:10:06;;;;;;;8.27;4.93;;;16.80;99.90;;;;;;5056641;28;20197;-84
2022/07/07 03:12:32;;;;;;;7.60;5.17;;;16.80;99.90;;;;;;5056461;28;20263;-83
2022/07/07 03:14:58;;;;;;;6.37;5.37;;;16.80;99.90;;;;;;5056115;28;20193;-84
2022/07/07 03:17:24;;;;;;;7.37;5.57;;;16.80;99.90;;;;;;5056338;28;20629;-84
2022/07/07 03:19:49;;;;;;;11.00;6.00;;;16.80;99.90;;;;;;5056859;28;20602;-83
2022/07/07 03:22:15;;;;;;;12.97;6.30;;;16.80;99.90;;;;;;5056347;28;20170;-83
2022/07/07 03:24:41;;;;;;;11.43;6.30;;;16.80;99.90;;;;;;5056479;28;20199;-83
2022/07/07 03:27:07;;;;;;;11.07;6.50;;;16.70;99.90;;;;;;5056583;28;20235;-83
2022/07/07 03:29:32;;;;;;;11.83;6.50;;;16.70;99.90;;;;;;5055907;28;20173;-83
2022/07/07 03:31:58;;;;;;;8.33;6.27;;;16.70;99.90;;;;;;5055725;28;20177;-83
2022/07/07 03:34:23;;;;;;;11.70;7.07;;;16.60;99.90;;;;;;5057491;28;20185;-84
2022/07/07 03:36:49;;;;;;;12.70;6.97;;;16.70;99.90;;;;;;5055972;28;20166;-84
2022/07/07 03:39:15;;;;;;;10.77;7.60;;;16.70;99.90;;;;;;5056490;28;20237;-84
2022/07/07 03:41:40;;;;;;;17.90;8.03;;;16.60;99.90;;;;;;5055318;28;20177;-84
2022/07/07 03:44:06;;;;;;;12.13;8.17;;;16.70;99.90;;;;;;5055562;28;20200;-84
2022/07/07 03:46:32;;;;;;;13.20;8.03;;;16.70;99.90;;;;;;5055798;28;20177;-83
2022/07/07 03:48:58;;;;;;;12.43;8.17;;;16.80;99.90;;;;;;5055597;28;20173;-83
2022/07/07 03:51:24;;;;;;;11.00;7.43;;;16.80;99.90;;;;;;5054911;28;20269;-83
2022/07/07 03:53:49;;;;;;;11.70;8.10;;;16.80;99.90;;;;;;5054521;28;20193;-83
2022/07/07 03:56:15;;;;;;;14.77;9.17;;;16.80;99.90;;;;;;5054253;28;20169;-83
2022/07/07 03:58:41;;;;;;;14.77;9.70;;;16.80;99.90;;;;;;5054536;28;20169;-83
2022/07/07 04:01:06;;;;;;;15.60;9.63;;;16.60;99.90;;;;;;5053753;28;20296;-83
2022/07/07 04:03:32;;;;;;;15.93;8.97;;;16.60;99.90;;;;;;5053997;28;20193;-82
2022/07/07 04:05:58;;;;;;;15.87;9.70;;;16.70;99.90;;;;;;5053368;28;20595;-83
2022/07/07 04:08:24;;;;;;;14.90;9.80;;;16.70;99.90;;;;;;5053346;28;20212;-83
2022/07/07 04:10:49;;;;;;;17.90;10.43;;;16.60;99.90;;;;;;5054200;28;20287;-83
2022/07/07 04:13:15;;;;;;;17.40;10.03;;;16.70;99.90;;;;;;5054153;28;20196;-82
2022/07/07 04:15:40;;;;;;;14.90;9.90;;;16.70;99.90;;;;;;5054199;28;20180;-83
2022/07/07 04:18:06;;;;;;;18.63;9.90;;;16.70;99.90;;;;;;5055258;28;20170;-83
2022/07/07 04:20:32;;;;;;;15.40;9.80;;;16.70;99.90;;;;;;5054142;28;20184;-83
2022/07/07 04:22:58;;;;;;;15.53;9.57;;;16.70;99.90;;;;;;5053278;28;20219;-84
2022/07/07 04:25:24;;;;;;;17.90;10.27;;;16.70;99.90;;;;;;5053539;28;20174;-82
2022/07/07 04:27:50;;;;;;;14.47;9.07;;;16.70;99.90;;;;;;5060522;28;20172;-83
2022/07/07 04:30:15;;;;;;;14.33;9.83;;;16.70;99.90;;;;;;5057448;28;20222;-83
2022/07/07 04:32:41;;;;;;;16.40;10.10;;;16.80;99.90;;;;;;5057450;28;20224;-82
2022/07/07 04:35:07;;;;;;;17.47;9.13;;;16.60;99.90;;;;;;5057586;28;20169;-82
2022/07/07 04:37:33;;;;;;;15.77;10.10;;;16.60;99.90;;;;;;5059243;28;20707;-82
2022/07/07 04:39:59;;;;;;;15.23;9.30;;;16.60;99.90;;;;;;5057659;28;20202;-82
2022/07/07 04:42:24;;;;;;;16.73;9.63;;;16.50;99.90;;;;;;5058037;28;20219;-82
2022/07/07 04:44:50;;;;;;;15.07;9.93;;;16.60;99.90;;;;;;5058587;28;20507;-82
2022/07/07 04:47:16;;;;;;;17.03;9.70;;;16.50;99.90;;;;;;5058729;28;20181;-82
2022/07/07 04:49:42;;;;;;;16.00;10.50;;;16.40;99.90;;;;;;5057584;28;20176;-82
2022/07/07 04:52:08;;;;;;;13.83;10.30;;;16.50;99.90;;;;;;5058558;28;20170;-82
2022/07/07 04:54:34;;;;;;;16.17;9.87;;;16.50;99.90;;;;;;5061093;28;20993;-83
2022/07/07 04:56:59;;;;;;;18.10;9.80;;;16.40;99.90;;;;;;5063350;28;20264;-82
2022/07/07 04:59:25;;;;;;;12.23;8.80;;;16.50;99.90;;;;;;5061493;28;20640;-82
2022/07/07 05:01:51;;;;;;;11.20;7.60;;;16.50;99.90;;;;;;5061376;28;20209;-83
2022/07/07 05:04:17;;;;;;;11.70;7.17;;;16.40;99.90;;;;;;5061018;28;20208;-82
2022/07/07 05:06:42;;;;;;;12.73;6.63;;;16.40;99.90;;;;;;5061024;28;20181;-82
2022/07/07 05:09:09;;;;;;;11.10;6.90;;;16.40;99.90;;;;;;5060750;28;20170;-82
2022/07/07 05:11:35;;;;;;;10.67;6.40;;;16.30;99.90;;;;;;5059247;28;20197;-82
2022/07/07 05:14:01;;;;;;;8.40;5.77;;;16.30;99.90;;;;;;5059254;28;20200;-82
2022/07/07 05:16:29;;;;;;;9.47;5.60;;;16.30;99.90;;;;;;5059157;28;20169;-83
2022/07/07 05:18:55;;;;;;;5.70;4.07;;;16.30;99.90;;;;;;5058621;28;20264;-81
2022/07/07 05:21:21;;;;;;;4.20;3.47;;;16.30;99.90;;;;;;5058705;28;20212;-83
2022/07/07 05:23:47;;;;;;;3.77;3.17;;;16.30;99.90;;;;;;5059902;28;20606;-83
2022/07/07 05:26:12;;;;;;;4.93;3.20;;;16.30;99.90;;;;;;5058673;28;20177;-82
2022/07/07 05:28:41;;;;;;;3.10;2.67;;;16.40;99.90;;;;;;5059914;28;20179;-83
2022/07/07 05:31:13;;;;;;;4.13;2.87;;;16.40;99.90;;;;;;5059742;28;20192;-83
2022/07/07 05:33:42;;;;;;;3.10;2.87;;;16.40;99.90;;;;;;5058050;28;20193;-83
2022/07/07 05:36:09;;;;;;;3.57;3.10;;;16.50;99.90;;;;;;5058149;28;20169;-82
2022/07/07 05:38:36;;;;;;;3.57;3.10;;;16.50;99.90;;;;;;5057397;28;20213;-83
2022/07/07 05:41:02;;;;;;;6.50;3.50;;;16.50;99.90;;;;;;5057722;28;20232;-84
2022/07/07 05:43:27;;;;;;;5.27;3.30;;;16.60;99.90;;;;;;5058517;28;20189;-84
2022/07/07 05:45:53;;;;;;;5.53;3.20;;;16.70;99.90;;;;;;5058195;28;20526;-83
2022/07/07 05:48:19;;;;;;;3.37;3.07;;;16.70;99.90;;;;;;5057604;28;20273;-84
2022/07/07 05:50:45;;;;;;;5.27;3.03;;;16.70;99.90;;;;;;5057017;28;20221;-83
2022/07/07 05:53:11;;;;;;;4.83;2.90;;;16.70;99.90;;;;;;5058077;28;20197;-83
2022/07/07 05:55:37;;;;;;;5.07;3.23;;;16.60;99.90;;;;;;5058057;28;20173;-83
2022/07/07 05:58:03;;;;;;;4.97;2.77;;;16.50;99.90;;;;;;5057102;28;20175;-83
2022/07/07 06:00:29;;;;;;;3.40;3.10;;;16.60;99.90;;;;;;5057348;28;20591;-84
2022/07/07 06:02:55;;;;;;;3.10;2.80;;;16.70;99.90;;;;;;5056947;28;20193;-84
2022/07/07 06:05:21;;;;;;;5.77;3.00;;;16.70;99.90;;;;;;5055946;28;20169;-83
2022/07/07 06:07:47;;;;;;;3.17;2.87;;;16.70;99.90;;;;;;5057234;28;20672;-83
2022/07/07 06:10:15;;;;;;;3.40;2.93;;;16.70;99.90;;;;;;5057001;28;20197;-83
2022/07/07 06:12:42;;;;;;;6.03;3.30;;;16.70;99.90;;;;;;5056628;28;20196;-83
2022/07/07 06:15:08;;;;;;;7.00;2.90;;;16.70;99.90;;;;;;5056974;28;20176;-83
2022/07/07 06:17:34;;;;;;;5.10;3.10;;;16.70;99.90;;;;;;5056750;28;20175;-83
2022/07/07 06:20:00;;;;;;;5.90;3.40;;;16.60;99.90;;;;;;5057517;28;20234;-82
2022/07/07 06:22:26;;;;;;;4.40;3.20;;;16.60;99.90;;;;;;5058812;28;20256;-82
2022/07/07 06:24:52;;;;;;;3.40;3.10;;;16.60;99.90;;;;;;5057100;28;20177;-82
2022/07/07 06:27:18;;;;;;;4.70;2.97;;;16.50;99.90;;;;;;5056111;28;20672;-80
2022/07/07 06:29:45;;;;;;;2.87;2.60;;;16.60;99.90;;;;;;5055434;28;20192;-79
2022/07/07 06:32:11;;;;;;;3.70;2.43;;;16.60;99.90;;;;;;5053747;28;20181;-78
2022/07/07 06:34:37;;;;;;;3.50;2.70;;;16.60;99.90;;;;;;5055810;28;20197;-79
2022/07/07 06:37:02;;;;;;;2.87;2.10;;;16.60;99.90;;;;;;5055771;28;20630;-79
2022/07/07 06:39:28;;;;;;;7.20;2.00;;;16.50;99.90;;;;;;5055599;28;20179;-78
2022/07/07 06:41:57;;;;;;;5.00;2.20;;;16.40;99.90;;;;;;5056100;28;20555;-79
2022/07/07 06:44:22;;;;;;;3.53;1.67;;;16.40;99.90;;;;;;5056863;28;20201;-79
2022/07/07 06:46:48;;;;;;;3.40;1.80;;;16.50;99.90;;;;;;5056423;28;20208;-79
2022/07/07 06:49:14;;;;;;;2.43;1.60;;;16.40;99.90;;;;;;5054965;28;20660;-78
2022/07/07 06:51:40;;;;;;;1.83;1.30;;;16.40;99.90;;;;;;5055499;28;20268;-79
2022/07/07 06:54:05;;;;;;;3.87;1.30;;;16.10;99.90;;;;;;5056764;28;20730;-79
2022/07/07 06:56:31;;;;;;;4.10;1.17;;;16.10;99.90;;;;;;5057049;28;20175;-79
2022/07/07 06:58:57;;;;;;;2.80;1.10;;;16.10;99.90;;;;;;5057312;28;20219;-79
2022/07/07 07:01:22;;;;;;;4.43;1.17;;;16.10;99.90;;;;;;5056666;28;20182;-79
2022/07/07 07:03:48;;;;;;;4.13;1.20;;;16.30;99.90;;;;;;5057780;28;20257;-79
2022/07/07 07:06:14;;;;;;;3.90;1.30;;;16.30;99.90;;;;;;5053730;28;20235;-79
2022/07/07 07:08:40;;;;;;;4.03;1.23;;;16.40;99.90;;;;;;5055863;28;20526;-79
2022/07/07 07:11:05;;;;;;;3.30;0.97;;;16.30;99.90;;;;;;5056276;28;20235;-79
2022/07/07 07:13:31;;;;;;;5.23;1.50;;;16.30;99.90;;;;;;5053920;28;20193;-78
2022/07/07 07:15:57;;;;;;;5.30;1.10;;;16.20;99.90;;;;;;5054119;28;20260;-78
2022/07/07 07:18:23;;;;;;;3.33;1.30;;;16.20;99.90;;;;;;5055316;28;20173;-79
2022/07/07 07:20:48;;;;;;;1.87;0.90;;;16.30;99.90;;;;;;5058016;28;20173;-79
2022/07/07 07:23:14;;;;;;;6.97;1.10;;;16.60;99.90;;;;;;5056023;28;20677;-80
2022/07/07 07:25:40;;;;;;;7.70;1.33;;;16.60;99.90;;;;;;5051929;28;20626;-79
2022/07/07 07:28:05;;;;;;;2.10;1.07;;;16.90;99.90;;;;;;5052331;28;20181;-79
2022/07/07 07:30:31;;;;;;;8.20;1.40;;;17.10;99.90;;;;;;5052283;28;20196;-79
2022/07/07 07:32:57;;;;;;;2.33;1.00;;;17.10;99.90;;;;;;5051525;28;20253;-79
2022/07/07 07:35:23;;;;;;;2.33;1.00;;;17.20;99.90;;;;;;5052124;28;20173;-79
2022/07/07 07:37:49;;;;;;;5.63;1.57;;;17.40;99.90;;;;;;5053559;28;20316;-80
2022/07/07 07:40:14;;;;;;;1.97;0.90;;;17.70;99.90;;;;;;5052969;28;20300;-81
2022/07/07 07:42:41;;;;;;;3.33;1.00;;;18.00;99.90;;;;;;5053691;28;20233;-79
2022/07/07 07:45:10;;;;;;;0.93;0.90;;;17.90;99.90;;;;;;5054849;28;20188;-79
2022/07/07 07:47:37;;;;;;;2.60;0.90;;;17.80;99.90;;;;;;5053427;28;20177;-79
2022/07/07 07:50:03;;;;;;;3.00;1.27;;;17.70;99.90;;;;;;5051378;28;20260;-79
2022/07/07 07:52:29;;;;;;;1.37;1.10;;;18.00;99.90;;;;;;5050338;28;20201;-79
2022/07/07 07:54:54;;;;;;;3.33;1.27;;;18.70;99.90;;;;;;5052633;28;20579;-80
2022/07/07 07:57:20;;;;;;;5.70;1.40;;;19.30;99.90;;;;;;5053912;28;20657;-80
2022/07/07 07:59:46;;;;;;;3.53;1.00;;;19.50;99.90;;;;;;5052964;28;20622;-80
2022/07/07 08:02:11;;;;;;;3.40;1.23;;;19.20;99.90;;;;;;5051341;28;20265;-79
2022/07/07 08:04:40;;;;;;;3.92;1.20;;;19.40;99.90;;;;;;5052479;28;20193;-80
2022/07/07 08:07:06;;;;;;;4.03;1.38;;;19.30;99.90;;;;;;5052123;28;20196;-80
2022/07/07 08:09:31;;;;;;;8.27;1.73;;;19.50;99.90;;;;;;5051891;28;20244;-80
2022/07/07 08:11:57;;;;;;;2.42;1.10;;;19.70;99.90;;;;;;5052200;28;20250;-80
2022/07/07 08:14:23;;;;;;;3.75;1.20;;;19.50;99.90;;;;;;5051837;28;20223;-80
2022/07/07 08:16:48;;;;;;;3.25;1.20;;;19.60;99.90;;;;;;5052323;28;20181;-79
2022/07/07 08:19:19;;;;;;;3.40;1.40;;;19.40;99.90;;;;;;5051976;28;20223;-80
2022/07/07 08:21:46;;;;;;;2.58;1.40;;;19.80;99.90;;;;;;5053463;28;20180;-80
2022/07/07 08:24:13;;;;;;;4.03;1.13;;;19.80;99.90;;;;;;5053732;28;20189;-81
2022/07/07 08:26:39;;;;;;;3.28;1.35;;;19.70;99.90;;;;;;5053027;28;20256;-81
2022/07/07 08:29:05;;;;;;;3.83;1.17;;;19.20;99.90;;;;;;5052452;28;20169;-80
2022/07/07 08:31:31;;;;;;;5.03;1.38;;;19.40;99.90;;;;;;5052402;28;20212;-80
2022/07/07 08:33:57;;;;;;;4.80;1.15;;;19.10;99.90;;;;;;5052548;28;20185;-80
2022/07/07 08:36:22;;;;;;;2.22;1.10;;;19.10;99.90;;;;;;5052251;28;20174;-80
2022/07/07 08:38:48;;;;;;;5.50;1.25;;;19.10;99.90;;;;;;5052322;28;20216;-80
2022/07/07 08:41:15;;;;;;;2.30;1.20;;;18.90;99.90;;;;;;5051576;28;20200;-80
2022/07/07 08:43:41;;;;;;;5.80;1.30;;;18.70;99.90;;;;;;5053414;28;20181;-81
2022/07/07 08:46:08;;;;;;;4.60;1.83;;;18.60;99.90;;;;;;5054127;28;20174;-80
2022/07/07 08:48:34;;;;;;;6.10;1.53;;;19.10;99.90;;;;;;5054419;28;20181;-81
2022/07/07 08:51:01;;;;;;;10.00;1.40;;;18.90;99.90;;;;;;5054160;28;20198;-80
2022/07/07 08:53:37;;;;;;;2.03;1.30;;;18.70;99.90;;;;;;5054207;28;20189;-81
2022/07/07 08:56:08;;;;;;;3.53;1.17;;;19.30;99.90;;;;;;5052472;28;20254;-80
2022/07/07 08:58:35;;;;;;;5.23;1.23;;;20.10;99.90;;;;;;5051624;28;20199;-80
2022/07/07 09:01:06;;;;;;;2.15;1.00;;;20.20;99.90;;;;;;5053327;28;20178;-80
2022/07/07 09:03:32;;;;;;;2.88;1.17;;;20.10;99.90;;;;;;5053871;28;20193;-80
2022/07/07 09:05:59;;;;;;;4.55;1.08;;;19.90;99.90;;;;;;5056095;28;20173;-80
2022/07/07 09:08:26;;;;;;;5.68;1.25;;;19.70;99.90;;;;;;5053963;28;20264;-80
2022/07/07 09:10:53;;;;;;;10.35;1.75;;;19.50;99.90;;;;;;5054201;28;20251;-80
2022/07/07 09:13:30;;;;;;;4.07;1.20;;;19.40;99.90;;;;;;5054390;28;20850;-80
2022/07/07 09:16:01;;;;;;;3.85;1.10;;;19.50;99.90;;;;;;5055760;28;20609;-80
2022/07/07 09:18:37;;;;;;;1.97;1.10;;;19.40;99.90;;;;;;5056294;28;20177;-80
2022/07/07 09:21:06;;;;;;;3.60;1.20;;;19.20;99.90;;;;;;5056533;28;20177;-80
2022/07/07 09:23:33;;;;;;;2.40;1.00;;;19.20;99.90;;;;;;5056605;28;20200;-81
2022/07/07 09:26:00;;;;;;;4.90;1.20;;;19.50;99.90;;;;;;5054875;28;20177;-81
2022/07/07 09:28:27;;;;;;;7.60;1.23;;;19.60;99.90;;;;;;5055702;28;20178;-81
2022/07/07 09:30:53;;;;;;;3.03;1.33;;;19.40;99.90;;;;;;5056654;28;20193;-80
2022/07/07 09:33:20;;;;;;;4.87;1.17;;;19.40;99.90;;;;;;5059372;28;20280;-81
2022/07/07 09:38:34;;;;;;;5.87;1.40;;;19.40;99.90;;;;;;5060089;28;20219;-80
2022/07/07 09:41:08;;;;;;;7.73;1.43;;;19.20;99.90;;;;;;5057813;28;20193;-80
2022/07/07 09:43:48;;;;;;;5.77;1.17;;;18.90;99.90;;;;;;5057528;28;20201;-80
2022/07/07 09:46:19;;;;;;;3.67;1.10;;;19.20;99.90;;;;;;5056651;28;20177;-81
2022/07/07 09:48:48;;;;;;;1.83;1.10;;;19.30;99.90;;;;;;5056453;28;20173;-80
2022/07/07 09:51:13;;;;;;;3.13;1.10;;;19.30;99.90;;;;;;5056412;28;20201;-80
2022/07/07 09:53:56;;;;;;;2.87;1.20;;;19.80;99.90;;;;;;5057237;28;20277;-80
2022/07/07 09:56:23;;;;;;;1.80;0.97;;;19.70;99.90;;;;;;5056101;28;20219;-80
2022/07/07 09:58:49;;;;;;;1.07;0.80;;;19.90;99.90;;;;;;5057062;28;20541;-80
2022/07/07 10:01:17;;;;;;;3.92;0.80;;;20.80;99.90;;;;;;5056494;28;20196;-80
2022/07/07 10:03:43;;;;;;;1.35;0.55;;;21.00;99.90;;;;;;5055882;28;20221;-81
2022/07/07 10:06:10;;;;;;;2.70;0.75;;;21.40;99.90;;;;;;5055950;28;20200;-79
2022/07/07 10:08:43;;;;;;;1.30;0.80;;;22.00;99.90;;;;;;5055878;28;20173;-80
2022/07/07 10:11:12;;;;;;;2.85;0.70;;;22.60;99.90;;;;;;5056589;28;20251;-79
2022/07/07 10:13:39;;;;;;;3.15;0.90;;;21.80;99.90;;;;;;5055320;28;20239;-80
2022/07/07 10:16:06;;;;;;;2.85;0.95;;;21.70;99.90;;;;;;5053973;28;20180;-81
2022/07/07 10:18:32;;;;;;;4.00;1.00;;;22.00;99.90;;;;;;5056049;28;20170;-81
2022/07/07 10:20:58;;;;;;;2.67;1.10;;;21.80;99.90;;;;;;5059244;28;20680;-80
2022/07/07 10:23:25;;;;;;;1.45;0.80;;;22.10;99.90;;;;;;5055887;28;20205;-80
2022/07/07 10:26:06;;;;;;;1.45;0.95;;;21.60;99.90;;;;;;5054953;28;20227;-79
2022/07/07 10:28:53;;;;;;;0.85;0.70;;;21.30;99.90;;;;;;5053264;28;20642;-80
2022/07/07 10:31:26;;;;;;;1.45;1.00;;;21.30;99.90;;;;;;5055196;28;20565;-82
2022/07/07 10:33:58;;;;;;;0.75;0.55;;;21.00;99.90;;;;;;5056533;28;20247;-81
2022/07/07 10:36:24;;;;;;;0.60;0.60;;;21.20;99.90;;;;;;5057926;28;20181;-82
2022/07/07 10:38:52;;;;;;;2.30;0.90;;;21.10;99.90;;;;;;5058539;28;20702;-81
2022/07/07 10:41:25;;;;;;;0.95;0.70;;;21.30;99.90;;;;;;5057005;28;20196;-81
2022/07/07 10:44:04;;;;;;;5.63;1.00;;;21.10;99.90;;;;;;5056397;28;20190;-81
2022/07/07 10:46:30;;;;;;;1.90;0.82;;;21.50;99.90;;;;;;5056126;28;20184;-82
2022/07/07 10:49:08;;;;;;;1.13;0.80;;;21.70;99.90;;;;;;5055713;28;20173;-81
2022/07/07 10:51:54;;;;;;;1.48;0.80;;;21.70;99.90;;;;;;5056061;28;20852;-81
2022/07/07 10:54:38;;;;;;;4.70;0.85;;;22.00;99.90;;;;;;5055674;28;20197;-80
2022/07/07 10:57:05;;;;;;;0.68;0.68;;;21.70;99.90;;;;;;5055291;28;20184;-80
2022/07/07 10:59:58;;;;;;;0.80;0.75;;;21.60;99.90;;;;;;5055426;28;20173;-80
2022/07/07 11:02:36;;;;;;;1.25;0.82;;;21.20;99.90;;;;;;5054979;28;20753;-80
2022/07/07 11:05:14;;;;;;;1.45;0.73;;;21.10;99.90;;;;;;5055937;28;20165;-81
2022/07/07 11:08:02;;;;;;;1.33;0.73;;;20.80;99.90;;;;;;5054137;28;20203;-80
2022/07/07 11:10:37;;;;;;;1.23;0.80;;;21.20;99.90;;;;;;5054383;28;20270;-81
2022/07/07 11:13:34;;;;;;;0.65;0.65;;;22.10;99.90;;;;;;5053843;28;20200;-81
2022/07/07 11:16:10;;;;;;;0.95;0.80;;;22.30;99.90;;;;;;5050313;28;20173;-81
2022/07/07 11:18:36;;;;;;;2.65;0.88;;;22.90;99.90;;;;;;5055672;28;20692;-81
2022/07/07 11:21:04;;;;;;;0.60;0.60;;;22.90;99.90;;;;;;5055892;28;20326;-82
2022/07/07 11:23:48;;;;;;;0.60;0.60;;;22.20;99.90;;;;;;5056973;28;20189;-81
2022/07/07 11:26:16;;;;;;;1.13;0.70;;;21.90;99.90;;;;;;5057575;28;20180;-80
2022/07/07 11:28:42;;;;;;;1.48;0.70;;;21.60;99.90;;;;;;5057530;28;20184;-80
2022/07/07 11:31:09;;;;;;;1.45;0.88;;;21.40;99.90;;;;;;5059112;28;20194;-80
2022/07/07 11:33:36;;;;;;;0.73;0.70;;;21.10;99.90;;;;;;5057741;28;20738;-81
2022/07/07 11:36:13;;;;;;;1.92;0.85;;;21.50;99.90;;;;;;5056385;28;20176;-81
2022/07/07 11:38:39;;;;;;;1.05;0.60;;;21.40;99.90;;;;;;5057110;28;20363;-81
2022/07/07 11:41:05;;;;;;;1.42;0.70;;;21.00;99.90;;;;;;5055407;28;20189;-80
2022/07/07 11:43:31;;;;;;;1.10;1.00;;;20.80;99.90;;;;;;5054600;28;20215;-80
2022/07/07 11:45:56;;;;;;;1.23;0.95;;;20.60;99.90;;;;;;5054416;28;20173;-81
2022/07/07 11:48:22;;;;;;;1.20;0.88;;;20.50;99.90;;;;;;5054005;28;20246;-79
2022/07/07 11:50:49;;;;;;;2.55;1.00;;;20.20;99.90;;;;;;5054257;28;20188;-81
2022/07/07 11:53:15;;;;;;;0.93;0.60;;;20.00;99.90;;;;;;5053831;28;20193;-80
2022/07/07 11:55:44;;;;;;;3.22;0.90;;;20.40;99.90;;;;;;5054376;28;20197;-81
2022/07/07 11:58:12;;;;;;;1.48;0.70;;;20.90;99.90;;;;;;5054407;28;20645;-80
2022/07/07 12:00:40;;;;;;;0.80;0.80;;;21.10;99.90;;;;;;5054611;28;20169;-81
2022/07/07 12:03:07;;;;;;;1.63;0.80;;;21.00;99.90;;;;;;5053994;28;20200;-80
2022/07/07 12:05:35;;;;;;;2.90;0.93;;;20.80;99.90;;;;;;5054194;28;20177;-81
2022/07/07 12:08:09;;;;;;;0.70;0.70;;;20.70;99.90;;;;;;5053358;28;20188;-80
2022/07/07 12:10:36;;;;;;;0.95;0.80;;;20.80;99.90;;;;;;5052085;28;20205;-79
2022/07/07 12:13:05;;;;;;;1.52;0.98;;;20.30;99.90;;;;;;5050714;28;20189;-80
2022/07/07 12:15:39;;;;;;;1.33;0.95;;;20.20;99.90;;;;;;5052730;28;20197;-80
2022/07/07 12:18:06;;;;;;;3.78;1.10;;;20.30;99.90;;;;;;5054898;28;20542;-81
2022/07/07 12:20:33;;;;;;;2.67;0.95;;;19.90;99.90;;;;;;5054770;28;20177;-81
2022/07/07 12:23:00;;;;;;;0.85;0.80;;;19.80;99.90;;;;;;5054453;28;20189;-81
2022/07/07 12:25:29;;;;;;;4.38;1.08;;;20.00;99.90;;;;;;5055183;28;20177;-81
2022/07/07 12:27:59;;;;;;;4.10;1.00;;;20.20;99.90;;;;;;5055276;28;20704;-80
2022/07/07 12:30:26;;;;;;;1.43;0.80;;;20.30;99.90;;;;;;5055046;28;20211;-80
2022/07/07 12:32:52;;;;;;;2.85;1.00;;;20.50;99.90;;;;;;5053970;28;20216;-79
2022/07/07 12:35:37;;;;;;;2.85;1.08;;;20.40;99.90;;;;;;5053477;28;20169;-79
2022/07/07 12:38:04;;;;;;;2.33;0.70;;;20.50;99.90;;;;;;5052864;28;20176;-80
2022/07/07 12:40:32;;;;;;;1.85;0.90;;;21.00;99.90;;;;;;5052740;28;20200;-79
2022/07/07 12:43:05;;;;;;;5.18;1.05;;;21.10;99.90;;;;;;5052978;28;20239;-79
2022/07/07 12:45:31;;;;;;;3.42;1.15;;;20.80;99.90;;;;;;5052667;28;20264;-79
2022/07/07 12:47:58;;;;;;;1.17;1.02;;;20.50;99.90;;;;;;5055021;28;20183;-79
2022/07/07 12:50:25;;;;;;;1.25;0.90;;;20.40;99.90;;;;;;5056467;28;20325;-79